Terminal Aerodrome Forecast
Issued by NWS

Home | Current Version | Previous Version | Text Only | Print | Product List | Glossary On
Versions: 1 2 3 4 5 6 7 8 9 10 11 12 13 14 15
000
FTUS45 KLKN 190915 AAA
TAFTPH
TAF AMD
KTPH 190915Z 1909/2006 15010KT P6SM VCSH FEW010 BKN030 OVC050
      TEMPO 1909/1912 OVC010
     FM191200 14006KT 3SM -SHSN BR BKN020 OVC080
     FM191900 30009KT P6SM VCSH BKN050=

USA.gov is the U.S. government's official web portal to all federal, state and local government web resources and services.